sensor_id;sensor_type;location;lat;lon;timestamp;pressure;altitude;pressure_sealevel;temperature;humidity
64019;BME280;66942;52.138;5.216;2023-05-19T00:00:25;102850.0;;;15.39;49.46
64019;BME280;66942;52.138;5.216;2023-05-19T00:02:02;102846.0;;;15.38;49.46
64019;BME280;66942;52.138;5.216;2023-05-19T00:03:48;102847.0;;;15.26;49.82
64019;BME280;66942;52.138;5.216;2023-05-19T00:07:02;102851.0;;;15.08;50.32
64019;BME280;66942;52.138;5.216;2023-05-19T00:08:38;102845.0;;;15.0;50.42
64019;BME280;66942;52.138;5.216;2023-05-19T00:10:16;102841.00000000001;;;14.99;50.38
64019;BME280;66942;52.138;5.216;2023-05-19T00:11:53;102838.00000000001;;;14.99;50.08
64019;BME280;66942;52.138;5.216;2023-05-19T00:15:07;102832.0;;;14.99;50.21
64019;BME280;66942;52.138;5.216;2023-05-19T00:16:43;102833.0;;;15.03;50.48
64019;BME280;66942;52.138;5.216;2023-05-19T00:18:20;102830.0;;;14.92;50.71
64019;BME280;66942;52.138;5.216;2023-05-19T00:21:32;102828.0;;;14.97;50.61
64019;BME280;66942;52.138;5.216;2023-05-19T00:23:09;102828.0;;;15.01;50.19
64019;BME280;66942;52.138;5.216;2023-05-19T00:24:46;102829.0;;;15.1;50.45
64019;BME280;66942;52.138;5.216;2023-05-19T00:27:58;102824.0;;;15.15;50.33
64019;BME280;66942;52.138;5.216;2023-05-19T00:29:34;102828.0;;;15.12;50.18
64019;BME280;66942;52.138;5.216;2023-05-19T00:31:10;102828.0;;;15.0;50.49
64019;BME280;66942;52.138;5.216;2023-05-19T00:32:47;102829.0;;;14.89;50.82
64019;BME280;66942;52.138;5.216;2023-05-19T00:35:59;102831.0;;;15.07;50.48
64019;BME280;66942;52.138;5.216;2023-05-19T00:37:35;102834.99999999999;;;14.92;51.04
64019;BME280;66942;52.138;5.216;2023-05-19T00:39:11;102831.0;;;14.89;50.82
64019;BME280;66942;52.138;5.216;2023-05-19T00:42:24;102833.0;;;14.75;51.22
64019;BME280;66942;52.138;5.216;2023-05-19T00:44:00;102833.99999999999;;;14.74;51.17
64019;BME280;66942;52.138;5.216;2023-05-19T00:45:36;102833.0;;;14.79;51.07
64019;BME280;66942;52.138;5.216;2023-05-19T00:48:48;102833.0;;;14.71;51.4
64019;BME280;66942;52.138;5.216;2023-05-19T00:50:26;102831.0;;;14.72;51.01
64019;BME280;66942;52.138;5.216;2023-05-19T00:52:04;102827.0;;;14.95;50.6
64019;BME280;66942;52.138;5.216;2023-05-19T00:53:41;102823.0;;;14.64;51.08
64019;BME280;66942;52.138;5.216;2023-05-19T00:56:57;102823.0;;;14.48;51.04
64019;BME280;66942;52.138;5.216;2023-05-19T00:58:35;102823.0;;;14.57;51.23
64019;BME280;66942;52.138;5.216;2023-05-19T01:00:12;102826.0;;;14.64;51.19
64019;BME280;66942;52.138;5.216;2023-05-19T01:03:29;102824.0;;;14.84;50.73
64019;BME280;66942;52.138;5.216;2023-05-19T01:05:06;102830.0;;;14.79;50.78
64019;BME280;66942;52.138;5.216;2023-05-19T01:06:45;102828.0;;;14.79;51.09
64019;BME280;66942;52.138;5.216;2023-05-19T01:08:22;102827.0;;;14.85;50.56
64019;BME280;66942;52.138;5.216;2023-05-19T01:11:34;102825.0;;;14.6;51.4
64019;BME280;66942;52.138;5.216;2023-05-19T01:13:10;102827.0;;;14.6;50.9
64019;BME280;66942;52.138;5.216;2023-05-19T01:14:46;102826.0;;;14.55;51.42
64019;BME280;66942;52.138;5.216;2023-05-19T01:18:09;102824.0;;;14.63;51.33
64019;BME280;66942;52.138;5.216;2023-05-19T01:19:55;102820.0;;;14.78;50.87
64019;BME280;66942;52.138;5.216;2023-05-19T01:21:51;102819.0;;;14.69;51.1
64019;BME280;66942;52.138;5.216;2023-05-19T01:25:08;102818.0;;;14.36;51.86
64019;BME280;66942;52.138;5.216;2023-05-19T01:29:36;102816.00000000001;;;14.35;52.13
64019;BME280;66942;52.138;5.216;2023-05-19T01:31:19;102816.00000000001;;;14.57;51.46
64019;BME280;66942;52.138;5.216;2023-05-19T01:34:39;102811.99999999999;;;14.55;51.58
64019;BME280;66942;52.138;5.216;2023-05-19T01:36:18;102808.0;;;14.87;50.27
64019;BME280;66942;52.138;5.216;2023-05-19T01:37:57;102803.0;;;14.5;51.24
64019;BME280;66942;52.138;5.216;2023-05-19T01:41:13;102805.0;;;14.61;51.05
64019;BME280;66942;52.138;5.216;2023-05-19T01:42:51;102804.0;;;14.46;51.31
64019;BME280;66942;52.138;5.216;2023-05-19T01:44:30;102803.0;;;14.34;51.93
64019;BME280;66942;52.138;5.216;2023-05-19T01:46:08;102804.0;;;14.23;51.84
64019;BME280;66942;52.138;5.216;2023-05-19T01:49:29;102802.0;;;14.29;51.95
64019;BME280;66942;52.138;5.216;2023-05-19T01:51:05;102799.0;;;14.3;52.01
64019;BME280;66942;52.138;5.216;2023-05-19T01:52:41;102797.0;;;14.31;51.87
64019;BME280;66942;52.138;5.216;2023-05-19T01:54:17;102796.0;;;14.28;51.87
64019;BME280;66942;52.138;5.216;2023-05-19T01:57:36;102797.0;;;14.16;52.04
64019;BME280;66942;52.138;5.216;2023-05-19T01:59:29;102791.00000000001;;;14.4;51.29
64019;BME280;66942;52.138;5.216;2023-05-19T02:01:23;102793.0;;;14.4;51.35
64019;BME280;66942;52.138;5.216;2023-05-19T02:03:13;102792.0;;;14.51;51.13
64019;BME280;66942;52.138;5.216;2023-05-19T02:05:03;102794.0;;;14.7;50.49
64019;BME280;66942;52.138;5.216;2023-05-19T02:08:33;102798.0;;;14.7;50.53
64019;BME280;66942;52.138;5.216;2023-05-19T02:10:27;102797.0;;;14.38;51.36
64019;BME280;66942;52.138;5.216;2023-05-19T02:12:10;102796.0;;;14.59;51.24
64019;BME280;66942;52.138;5.216;2023-05-19T02:13:55;102798.0;;;14.43;51.41
64019;BME280;66942;52.138;5.216;2023-05-19T02:15:38;102796.0;;;14.47;51.87
64019;BME280;66942;52.138;5.216;2023-05-19T02:17:17;102795.0;;;14.56;51.71
64019;BME280;66942;52.138;5.216;2023-05-19T02:20:31;102793.0;;;14.59;51.2
64019;BME280;66942;52.138;5.216;2023-05-19T02:22:07;102793.0;;;14.64;51.68
64019;BME280;66942;52.138;5.216;2023-05-19T02:23:43;102790.00000000001;;;14.69;51.8
64019;BME280;66942;52.138;5.216;2023-05-19T02:26:55;102790.00000000001;;;14.73;51.39
64019;BME280;66942;52.138;5.216;2023-05-19T02:28:32;102789.00000000001;;;14.73;51.45
64019;BME280;66942;52.138;5.216;2023-05-19T02:30:09;102793.0;;;14.67;51.84
64019;BME280;66942;52.138;5.216;2023-05-19T02:33:21;102792.0;;;14.7;52.06
64019;BME280;66942;52.138;5.216;2023-05-19T02:34:57;102792.0;;;14.71;51.95
64019;BME280;66942;52.138;5.216;2023-05-19T02:36:34;102789.00000000001;;;14.88;51.89
64019;BME280;66942;52.138;5.216;2023-05-19T02:38:11;102786.99999999999;;;14.82;52.07
64019;BME280;66942;52.138;5.216;2023-05-19T02:41:23;102782.0;;;14.93;51.58
64019;BME280;66942;52.138;5.216;2023-05-19T02:42:59;102778.0;;;15.07;51.65
64019;BME280;66942;52.138;5.216;2023-05-19T02:44:35;102777.0;;;14.85;51.81
64019;BME280;66942;52.138;5.216;2023-05-19T02:47:48;102768.0;;;15.07;51.7
64019;BME280;66942;52.138;5.216;2023-05-19T02:49:24;102766.00000000001;;;15.15;51.27
64019;BME280;66942;52.138;5.216;2023-05-19T02:51:00;102761.99999999999;;;15.1;51.92
64019;BME280;66942;52.138;5.216;2023-05-19T02:54:12;102759.99999999999;;;15.22;51.35
64019;BME280;66942;52.138;5.216;2023-05-19T02:55:49;102761.99999999999;;;15.09;51.59
64019;BME280;66942;52.138;5.216;2023-05-19T02:57:25;102764.00000000001;;;15.26;51.28
64019;BME280;66942;52.138;5.216;2023-05-19T03:00:37;102758.99999999999;;;15.24;51.37
64019;BME280;66942;52.138;5.216;2023-05-19T03:02:13;102758.99999999999;;;15.33;51.25
64019;BME280;66942;52.138;5.216;2023-05-19T03:03:49;102753.0;;;15.14;51.66
64019;BME280;66942;52.138;5.216;2023-05-19T03:05:26;102751.0;;;15.17;51.58
64019;BME280;66942;52.138;5.216;2023-05-19T03:08:38;102749.0;;;15.21;51.32
64019;BME280;66942;52.138;5.216;2023-05-19T03:10:14;102746.0;;;15.19;51.44
64019;BME280;66942;52.138;5.216;2023-05-19T03:11:50;102747.0;;;15.32;51.4
64019;BME280;66942;52.138;5.216;2023-05-19T03:15:03;102746.0;;;15.14;51.5
64019;BME280;66942;52.138;5.216;2023-05-19T03:16:40;102752.0;;;15.19;51.86
64019;BME280;66942;52.138;5.216;2023-05-19T03:18:16;102750.0;;;15.0;52.32
64019;BME280;66942;52.138;5.216;2023-05-19T03:21:28;102752.0;;;15.11;52.39
64019;BME280;66942;52.138;5.216;2023-05-19T03:23:05;102753.0;;;15.18;51.81
64019;BME280;66942;52.138;5.216;2023-05-19T03:24:41;102754.0;;;15.2;51.53
64019;BME280;66942;52.138;5.216;2023-05-19T03:26:17;102756.0;;;15.07;51.72
64019;BME280;66942;52.138;5.216;2023-05-19T03:29:29;102757.0;;;15.21;51.21
64019;BME280;66942;52.138;5.216;2023-05-19T03:31:06;102754.0;;;15.39;51.06
64019;BME280;66942;52.138;5.216;2023-05-19T03:32:42;102755.0;;;15.31;51.3
64019;BME280;66942;52.138;5.216;2023-05-19T03:35:55;102754.0;;;15.05;51.77
64019;BME280;66942;52.138;5.216;2023-05-19T03:37:31;102754.0;;;15.06;51.87
64019;BME280;66942;52.138;5.216;2023-05-19T03:39:07;102749.0;;;15.08;52.12
64019;BME280;66942;52.138;5.216;2023-05-19T03:42:20;102750.0;;;15.18;51.89
64019;BME280;66942;52.138;5.216;2023-05-19T03:43:56;102745.0;;;15.12;52.25
64019;BME280;66942;52.138;5.216;2023-05-19T03:45:32;102745.0;;;14.89;52.12
64019;BME280;66942;52.138;5.216;2023-05-19T03:48:44;102744.0;;;14.9;52.24
64019;BME280;66942;52.138;5.216;2023-05-19T03:50:21;102744.0;;;15.16;51.42
64019;BME280;66942;52.138;5.216;2023-05-19T03:51:57;102747.0;;;15.07;51.6
64019;BME280;66942;52.138;5.216;2023-05-19T03:53:33;102745.0;;;15.08;51.83
64019;BME280;66942;52.138;5.216;2023-05-19T03:56:45;102743.0;;;15.08;51.68
64019;BME280;66942;52.138;5.216;2023-05-19T03:58:21;102744.0;;;15.09;51.77
64019;BME280;66942;52.138;5.216;2023-05-19T03:59:58;102746.0;;;14.89;52.6
64019;BME280;66942;52.138;5.216;2023-05-19T04:03:10;102746.0;;;15.05;52.41
64019;BME280;66942;52.138;5.216;2023-05-19T04:04:46;102742.0;;;15.11;52.15
64019;BME280;66942;52.138;5.216;2023-05-19T04:06:22;102743.0;;;15.23;51.96
64019;BME280;66942;52.138;5.216;2023-05-19T04:09:34;102746.0;;;15.24;51.93
64019;BME280;66942;52.138;5.216;2023-05-19T04:11:11;102744.0;;;15.33;51.82
64019;BME280;66942;52.138;5.216;2023-05-19T04:12:47;102743.0;;;15.46;51.52
64019;BME280;66942;52.138;5.216;2023-05-19T04:15:59;102743.0;;;15.26;52.28
64019;BME280;66942;52.138;5.216;2023-05-19T04:17:35;102743.0;;;15.43;51.81
64019;BME280;66942;52.138;5.216;2023-05-19T04:19:11;102752.0;;;15.27;52.33
64019;BME280;66942;52.138;5.216;2023-05-19T04:20:48;102753.0;;;15.25;52.37
64019;BME280;66942;52.138;5.216;2023-05-19T04:24:00;102755.0;;;15.41;52.02
64019;BME280;66942;52.138;5.216;2023-05-19T04:25:36;102752.0;;;15.46;51.99
64019;BME280;66942;52.138;5.216;2023-05-19T04:27:12;102754.0;;;15.57;51.61
64019;BME280;66942;52.138;5.216;2023-05-19T04:30:25;102758.0;;;15.31;52.33
64019;BME280;66942;52.138;5.216;2023-05-19T04:32:01;102756.0;;;15.48;51.96
64019;BME280;66942;52.138;5.216;2023-05-19T04:33:37;102757.0;;;15.44;52.07
64019;BME280;66942;52.138;5.216;2023-05-19T04:36:49;102758.0;;;15.58;51.63
64019;BME280;66942;52.138;5.216;2023-05-19T04:38:25;102758.0;;;15.6;51.66
64019;BME280;66942;52.138;5.216;2023-05-19T04:40:02;102755.0;;;15.64;51.54
64019;BME280;66942;52.138;5.216;2023-05-19T04:41:38;102757.0;;;15.53;51.82
64019;BME280;66942;52.138;5.216;2023-05-19T04:44:50;102759.99999999999;;;15.48;52.05
64019;BME280;66942;52.138;5.216;2023-05-19T04:46:26;102761.99999999999;;;15.57;51.97
64019;BME280;66942;52.138;5.216;2023-05-19T04:48:03;102759.99999999999;;;15.81;51.41
64019;BME280;66942;52.138;5.216;2023-05-19T04:51:15;102761.99999999999;;;15.77;51.5
64019;BME280;66942;52.138;5.216;2023-05-19T04:52:51;102764.00000000001;;;15.74;51.73
64019;BME280;66942;52.138;5.216;2023-05-19T04:54:27;102757.0;;;15.67;51.91
64019;BME280;66942;52.138;5.216;2023-05-19T04:57:40;102759.99999999999;;;15.78;51.67
64019;BME280;66942;52.138;5.216;2023-05-19T04:59:16;102759.99999999999;;;15.7;51.79
64019;BME280;66942;52.138;5.216;2023-05-19T05:00:53;102759.99999999999;;;15.87;51.61
64019;BME280;66942;52.138;5.216;2023-05-19T05:04:05;102758.99999999999;;;15.58;52.19
64019;BME280;66942;52.138;5.216;2023-05-19T05:05:41;102761.99999999999;;;15.78;51.78
64019;BME280;66942;52.138;5.216;2023-05-19T05:07:17;102765.00000000001;;;16.02;51.42
64019;BME280;66942;52.138;5.216;2023-05-19T05:08:54;102763.00000000001;;;16.28;50.94
64019;BME280;66942;52.138;5.216;2023-05-19T05:12:07;102767.0;;;16.09;51.02
64019;BME280;66942;52.138;5.216;2023-05-19T05:13:43;102768.0;;;16.41;50.57
64019;BME280;66942;52.138;5.216;2023-05-19T05:15:20;102770.0;;;16.39;50.67
64019;BME280;66942;52.138;5.216;2023-05-19T05:18:34;102776.0;;;16.32;50.91
64019;BME280;66942;52.138;5.216;2023-05-19T05:20:12;102777.0;;;16.41;50.95
64019;BME280;66942;52.138;5.216;2023-05-19T05:21:48;102780.0;;;16.57;50.49
64019;BME280;66942;52.138;5.216;2023-05-19T05:25:02;102782.0;;;16.72;49.82
64019;BME280;66942;52.138;5.216;2023-05-19T05:26:39;102779.0;;;16.91;49.5
64019;BME280;66942;52.138;5.216;2023-05-19T05:28:15;102779.0;;;17.11;48.85
64019;BME280;66942;52.138;5.216;2023-05-19T05:29:51;102778.0;;;17.13;48.82
64019;BME280;66942;52.138;5.216;2023-05-19T05:33:03;102781.0;;;17.31;48.79
64019;BME280;66942;52.138;5.216;2023-05-19T05:34:39;102780.0;;;17.45;47.88
64019;BME280;66942;52.138;5.216;2023-05-19T05:36:15;102781.0;;;17.37;48.55
64019;BME280;66942;52.138;5.216;2023-05-19T05:39:28;102784.99999999999;;;17.66;48.07
64019;BME280;66942;52.138;5.216;2023-05-19T05:41:04;102781.0;;;17.61;47.44
64019;BME280;66942;52.138;5.216;2023-05-19T05:42:40;102784.99999999999;;;17.57;47.89
64019;BME280;66942;52.138;5.216;2023-05-19T05:45:53;102781.0;;;17.59;47.65
64019;BME280;66942;52.138;5.216;2023-05-19T05:47:29;102781.0;;;17.5;48.45
64019;BME280;66942;52.138;5.216;2023-05-19T05:49:05;102782.0;;;17.73;46.83
64019;BME280;66942;52.138;5.216;2023-05-19T05:50:42;102781.0;;;17.72;47.6
64019;BME280;66942;52.138;5.216;2023-05-19T05:53:59;102779.0;;;17.73;46.99
64019;BME280;66942;52.138;5.216;2023-05-19T05:55:35;102780.0;;;18.02;46.93
64019;BME280;66942;52.138;5.216;2023-05-19T05:57:11;102778.0;;;17.93;46.92
64019;BME280;66942;52.138;5.216;2023-05-19T06:00:23;102778.0;;;18.3;45.92
64019;BME280;66942;52.138;5.216;2023-05-19T06:02:00;102777.0;;;18.18;46.84
64019;BME280;66942;52.138;5.216;2023-05-19T06:03:37;102778.0;;;18.18;47.26
64019;BME280;66942;52.138;5.216;2023-05-19T06:06:49;102778.0;;;18.16;46.07
64019;BME280;66942;52.138;5.216;2023-05-19T06:08:25;102780.0;;;18.57;45.08
64019;BME280;66942;52.138;5.216;2023-05-19T06:10:01;102778.0;;;18.52;44.8
64019;BME280;66942;52.138;5.216;2023-05-19T06:11:37;102779.0;;;18.36;45.28
64019;BME280;66942;52.138;5.216;2023-05-19T06:14:50;102778.0;;;18.38;44.91
64019;BME280;66942;52.138;5.216;2023-05-19T06:16:26;102778.0;;;18.5;45.16
64019;BME280;66942;52.138;5.216;2023-05-19T06:18:02;102781.0;;;18.53;44.54
64019;BME280;66942;52.138;5.216;2023-05-19T06:21:14;102780.0;;;18.61;45.42
64019;BME280;66942;52.138;5.216;2023-05-19T06:22:51;102776.0;;;18.34;45.01
64019;BME280;66942;52.138;5.216;2023-05-19T06:24:27;102775.0;;;18.57;45.15
64019;BME280;66942;52.138;5.216;2023-05-19T06:27:39;102770.0;;;18.72;44.2
64019;BME280;66942;52.138;5.216;2023-05-19T06:29:16;102768.0;;;18.53;45.31
64019;BME280;66942;52.138;5.216;2023-05-19T06:30:52;102767.0;;;18.93;44.17
64019;BME280;66942;52.138;5.216;2023-05-19T06:32:29;102768.0;;;18.91;43.91
64019;BME280;66942;52.138;5.216;2023-05-19T06:35:41;102768.0;;;19.06;43.8
64019;BME280;66942;52.138;5.216;2023-05-19T06:37:17;102768.0;;;19.14;43.99
64019;BME280;66942;52.138;5.216;2023-05-19T06:38:53;102769.0;;;18.87;43.33
64019;BME280;66942;52.138;5.216;2023-05-19T06:43:42;102764.00000000001;;;19.29;42.5
64019;BME280;66942;52.138;5.216;2023-05-19T06:45:18;102756.0;;;19.43;42.62
64019;BME280;66942;52.138;5.216;2023-05-19T06:48:30;102758.99999999999;;;19.37;42.44
64019;BME280;66942;52.138;5.216;2023-05-19T06:50:07;102758.99999999999;;;19.68;42.24
64019;BME280;66942;52.138;5.216;2023-05-19T06:51:44;102764.00000000001;;;19.53;42.66
64019;BME280;66942;52.138;5.216;2023-05-19T06:54:56;102761.99999999999;;;19.62;42.05
64019;BME280;66942;52.138;5.216;2023-05-19T06:56:32;102761.99999999999;;;19.77;40.96
64019;BME280;66942;52.138;5.216;2023-05-19T06:58:08;102764.00000000001;;;19.87;40.75
64019;BME280;66942;52.138;5.216;2023-05-19T06:59:45;102767.0;;;19.66;41.26
64019;BME280;66942;52.138;5.216;2023-05-19T07:02:57;102769.0;;;19.88;42.11
64019;BME280;66942;52.138;5.216;2023-05-19T07:04:33;102768.0;;;20.21;42.16
64019;BME280;66942;52.138;5.216;2023-05-19T07:06:09;102771.0;;;20.13;40.83
64019;BME280;66942;52.138;5.216;2023-05-19T07:09:22;102767.0;;;20.28;40.28
64019;BME280;66942;52.138;5.216;2023-05-19T07:10:58;102766.00000000001;;;20.3;40.51
64019;BME280;66942;52.138;5.216;2023-05-19T07:12:34;102763.00000000001;;;20.53;40.32
64019;BME280;66942;52.138;5.216;2023-05-19T07:15:46;102766.00000000001;;;20.29;40.06
64019;BME280;66942;52.138;5.216;2023-05-19T07:17:23;102767.0;;;20.85;39.74
64019;BME280;66942;52.138;5.216;2023-05-19T07:18:59;102768.0;;;21.0;40.69
64019;BME280;66942;52.138;5.216;2023-05-19T07:22:11;102770.0;;;20.97;38.96
64019;BME280;66942;52.138;5.216;2023-05-19T07:23:47;102767.0;;;21.13;39.24
64019;BME280;66942;52.138;5.216;2023-05-19T07:25:23;102764.00000000001;;;20.85;38.87
64019;BME280;66942;52.138;5.216;2023-05-19T07:27:00;102765.00000000001;;;20.83;38.89
64019;BME280;66942;52.138;5.216;2023-05-19T07:30:12;102768.0;;;21.18;38.78
64019;BME280;66942;52.138;5.216;2023-05-19T07:31:48;102772.0;;;21.58;39.18
64019;BME280;66942;52.138;5.216;2023-05-19T07:33:24;102769.0;;;21.74;37.58
64019;BME280;66942;52.138;5.216;2023-05-19T07:36:37;102766.00000000001;;;21.92;37.67
64019;BME280;66942;52.138;5.216;2023-05-19T07:38:13;102764.00000000001;;;21.87;37.67
64019;BME280;66942;52.138;5.216;2023-05-19T07:39:49;102759.99999999999;;;22.17;36.32
64019;BME280;66942;52.138;5.216;2023-05-19T07:43:02;102765.00000000001;;;22.23;36.28
64019;BME280;66942;52.138;5.216;2023-05-19T07:44:38;102759.99999999999;;;22.38;38.57
64019;BME280;66942;52.138;5.216;2023-05-19T07:46:14;102764.00000000001;;;22.71;35.39
64019;BME280;66942;52.138;5.216;2023-05-19T07:47:52;102759.99999999999;;;22.91;35.46
64019;BME280;66942;52.138;5.216;2023-05-19T07:51:04;102763.00000000001;;;23.03;34.94
64019;BME280;66942;52.138;5.216;2023-05-19T07:52:41;102752.0;;;23.29;35.6
64019;BME280;66942;52.138;5.216;2023-05-19T07:54:17;102755.0;;;23.44;36.74
64019;BME280;66942;52.138;5.216;2023-05-19T07:57:29;102749.0;;;23.98;35.37
64019;BME280;66942;52.138;5.216;2023-05-19T07:59:05;102746.0;;;23.96;34.89
64019;BME280;66942;52.138;5.216;2023-05-19T08:00:41;102744.0;;;23.92;34.08
64019;BME280;66942;52.138;5.216;2023-05-19T08:03:54;102745.0;;;24.21;32.92
64019;BME280;66942;52.138;5.216;2023-05-19T08:05:30;102742.0;;;24.2;33.53
64019;BME280;66942;52.138;5.216;2023-05-19T08:07:06;102742.0;;;24.33;33.21
64019;BME280;66942;52.138;5.216;2023-05-19T08:08:42;102740.00000000001;;;24.59;34.71
64019;BME280;66942;52.138;5.216;2023-05-19T08:11:55;102739.00000000001;;;24.77;33.03
64019;BME280;66942;52.138;5.216;2023-05-19T08:13:31;102738.00000000001;;;24.72;35.31
64019;BME280;66942;52.138;5.216;2023-05-19T08:15:08;102731.0;;;24.79;32.67
64019;BME280;66942;52.138;5.216;2023-05-19T08:18:20;102736.99999999999;;;24.65;32.14
64019;BME280;66942;52.138;5.216;2023-05-19T08:19:57;102732.0;;;24.92;33.18
64019;BME280;66942;52.138;5.216;2023-05-19T08:21:33;102729.0;;;24.82;33.83
64019;BME280;66942;52.138;5.216;2023-05-19T08:24:45;102726.0;;;24.93;31.35
64019;BME280;66942;52.138;5.216;2023-05-19T08:26:21;102722.0;;;25.0;30.87
64019;BME280;66942;52.138;5.216;2023-05-19T08:27:57;102723.0;;;25.15;32.76
64019;BME280;66942;52.138;5.216;2023-05-19T08:31:10;102720.0;;;25.02;31.63
64019;BME280;66942;52.138;5.216;2023-05-19T08:32:45;102717.0;;;25.14;31.76
64019;BME280;66942;52.138;5.216;2023-05-19T08:34:21;102717.0;;;25.57;32.57
64019;BME280;66942;52.138;5.216;2023-05-19T08:35:57;102713.00000000001;;;25.22;30.07
64019;BME280;66942;52.138;5.216;2023-05-19T08:39:11;102711.99999999999;;;25.52;30.43
64019;BME280;66942;52.138;5.216;2023-05-19T08:40:47;102704.0;;;25.92;30.31
64019;BME280;66942;52.138;5.216;2023-05-19T08:42:23;102703.0;;;24.64;31.11
64019;BME280;66942;52.138;5.216;2023-05-19T08:45:36;102701.0;;;24.74;31.66
64019;BME280;66942;52.138;5.216;2023-05-19T08:47:14;102699.0;;;25.55;30.23
64019;BME280;66942;52.138;5.216;2023-05-19T08:48:53;102701.0;;;25.6;31.25
64019;BME280;66942;52.138;5.216;2023-05-19T08:50:34;102694.0;;;25.59;29.87
64019;BME280;66942;52.138;5.216;2023-05-19T08:54:06;102695.0;;;25.48;29.56
64019;BME280;66942;52.138;5.216;2023-05-19T08:55:59;102689.00000000001;;;25.39;28.62
64019;BME280;66942;52.138;5.216;2023-05-19T08:57:39;102686.99999999999;;;25.45;28.38
64019;BME280;66942;52.138;5.216;2023-05-19T08:59:17;102679.0;;;25.73;29.32
64019;BME280;66942;52.138;5.216;2023-05-19T09:02:32;102688.00000000001;;;25.32;29.15
64019;BME280;66942;52.138;5.216;2023-05-19T09:04:10;102682.0;;;25.23;27.24
64019;BME280;66942;52.138;5.216;2023-05-19T09:05:47;102683.0;;;24.56;27.65
64019;BME280;66942;52.138;5.216;2023-05-19T09:07:23;102682.0;;;24.33;27.74
64019;BME280;66942;52.138;5.216;2023-05-19T09:10:36;102689.00000000001;;;24.79;26.49
64019;BME280;66942;52.138;5.216;2023-05-19T09:12:13;102688.00000000001;;;24.76;27.58
64019;BME280;66942;52.138;5.216;2023-05-19T09:13:49;102682.0;;;25.25;27.26
64019;BME280;66942;52.138;5.216;2023-05-19T09:17:02;102681.0;;;25.32;29.54
64019;BME280;66942;52.138;5.216;2023-05-19T09:18:38;102677.0;;;25.55;27.47
64019;BME280;66942;52.138;5.216;2023-05-19T09:20:15;102680.0;;;25.36;28.08
64019;BME280;66942;52.138;5.216;2023-05-19T09:23:33;102678.0;;;25.54;28.92
64019;BME280;66942;52.138;5.216;2023-05-19T09:25:16;102678.0;;;25.93;26.94
64019;BME280;66942;52.138;5.216;2023-05-19T09:26:54;102674.0;;;26.22;26.37
64019;BME280;66942;52.138;5.216;2023-05-19T09:28:33;102673.0;;;26.05;25.89
64019;BME280;66942;52.138;5.216;2023-05-19T09:31:47;102672.0;;;25.12;26.48
64019;BME280;66942;52.138;5.216;2023-05-19T09:33:24;102669.0;;;25.54;27.25
64019;BME280;66942;52.138;5.216;2023-05-19T09:35:01;102674.0;;;25.38;26.17
64019;BME280;66942;52.138;5.216;2023-05-19T09:36:38;102670.0;;;26.08;26.74
64019;BME280;66942;52.138;5.216;2023-05-19T09:39:53;102666.00000000001;;;25.86;26.04
64019;BME280;66942;52.138;5.216;2023-05-19T09:41:29;102659.99999999999;;;26.13;26.47
64019;BME280;66942;52.138;5.216;2023-05-19T09:43:06;102671.0;;;25.53;25.6
64019;BME280;66942;52.138;5.216;2023-05-19T09:46:23;102667.0;;;25.85;25.22
64019;BME280;66942;52.138;5.216;2023-05-19T09:48:02;102663.00000000001;;;25.88;25.09
64019;BME280;66942;52.138;5.216;2023-05-19T09:49:45;102670.0;;;25.72;23.53
64019;BME280;66942;52.138;5.216;2023-05-19T09:51:22;102659.99999999999;;;25.92;25.61
64019;BME280;66942;52.138;5.216;2023-05-19T09:54:36;102666.00000000001;;;25.88;23.56
64019;BME280;66942;52.138;5.216;2023-05-19T09:56:14;102656.0;;;25.97;23.11
64019;BME280;66942;52.138;5.216;2023-05-19T09:57:53;102670.0;;;25.88;24.64
64019;BME280;66942;52.138;5.216;2023-05-19T10:01:08;102658.99999999999;;;25.98;23.58
64019;BME280;66942;52.138;5.216;2023-05-19T10:02:46;102658.99999999999;;;26.06;23.7
64019;BME280;66942;52.138;5.216;2023-05-19T10:04:23;102658.0;;;26.5;22.88
64019;BME280;66942;52.138;5.216;2023-05-19T10:06:01;102656.0;;;26.3;22.64
64019;BME280;66942;52.138;5.216;2023-05-19T10:09:16;102656.0;;;26.33;23.85
64019;BME280;66942;52.138;5.216;2023-05-19T10:10:52;102656.0;;;26.86;25.09
64019;BME280;66942;52.138;5.216;2023-05-19T10:12:29;102645.0;;;26.59;22.78
64019;BME280;66942;52.138;5.216;2023-05-19T10:15:43;102655.0;;;26.47;24.38
64019;BME280;66942;52.138;5.216;2023-05-19T10:17:24;102655.0;;;25.87;23.32
64019;BME280;66942;52.138;5.216;2023-05-19T10:19:01;102654.0;;;26.16;24.35
64019;BME280;66942;52.138;5.216;2023-05-19T10:20:39;102653.0;;;26.27;24.17
64019;BME280;66942;52.138;5.216;2023-05-19T10:23:54;102649.0;;;26.38;23.33
64019;BME280;66942;52.138;5.216;2023-05-19T10:25:31;102649.0;;;26.78;23.36
64019;BME280;66942;52.138;5.216;2023-05-19T10:27:10;102641.00000000001;;;27.12;23.34
64019;BME280;66942;52.138;5.216;2023-05-19T10:30:28;102644.0;;;27.11;25.16
64019;BME280;66942;52.138;5.216;2023-05-19T10:32:10;102642.0;;;26.84;23.55
64019;BME280;66942;52.138;5.216;2023-05-19T10:33:59;102630.0;;;27.09;23.72
64019;BME280;66942;52.138;5.216;2023-05-19T10:36:07;102641.00000000001;;;26.91;25.29
64019;BME280;66942;52.138;5.216;2023-05-19T10:37:56;102641.00000000001;;;26.71;23.66
64019;BME280;66942;52.138;5.216;2023-05-19T10:39:34;102633.0;;;27.16;24.13
64019;BME280;66942;52.138;5.216;2023-05-19T10:43:14;102634.99999999999;;;27.46;24.03
64019;BME280;66942;52.138;5.216;2023-05-19T10:45:02;102624.0;;;27.15;24.6
64019;BME280;66942;52.138;5.216;2023-05-19T10:46:52;102634.99999999999;;;26.47;24.64
64019;BME280;66942;52.138;5.216;2023-05-19T10:48:32;102634.99999999999;;;26.44;23.86